sensor_id;sensor_type;location;lat;lon;timestamp;temperature;humidity
30037;DHT22;36325;51.512;-0.382;2023-10-09T00:02:11;16.30;99.90
30037;DHT22;36325;51.512;-0.382;2023-10-09T00:04:39;16.40;99.90
30037;DHT22;36325;51.512;-0.382;2023-10-09T00:07:13;16.40;99.90
30037;DHT22;36325;51.512;-0.382;2023-10-09T00:09:44;16.40;99.90
30037;DHT22;36325;51.512;-0.382;2023-10-09T00:12:17;16.40;99.90
30037;DHT22;36325;51.512;-0.382;2023-10-09T00:14:52;16.40;99.90
30037;DHT22;36325;51.512;-0.382;2023-10-09T00:19:52;16.40;99.90
30037;DHT22;36325;51.512;-0.382;2023-10-09T00:22:21;16.40;99.90
30037;DHT22;36325;51.512;-0.382;2023-10-09T00:24:58;16.40;99.90
30037;DHT22;36325;51.512;-0.382;2023-10-09T00:27:38;16.40;99.90
30037;DHT22;36325;51.512;-0.382;2023-10-09T00:30:15;16.40;99.90
30037;DHT22;36325;51.512;-0.382;2023-10-09T00:32:48;16.50;99.90
30037;DHT22;36325;51.512;-0.382;2023-10-09T00:35:38;16.50;99.90
30037;DHT22;36325;51.512;-0.382;2023-10-09T00:38:11;16.50;99.90
30037;DHT22;36325;51.512;-0.382;2023-10-09T00:40:51;16.50;99.90
30037;DHT22;36325;51.512;-0.382;2023-10-09T00:43:37;16.40;99.90
30037;DHT22;36325;51.512;-0.382;2023-10-09T00:46:07;16.40;99.90
30037;DHT22;36325;51.512;-0.382;2023-10-09T00:48:59;16.30;99.90
30037;DHT22;36325;51.512;-0.382;2023-10-09T00:51:31;16.30;99.90
30037;DHT22;36325;51.512;-0.382;2023-10-09T00:54:05;16.20;99.90
30037;DHT22;36325;51.512;-0.382;2023-10-09T00:56:42;16.20;99.90
30037;DHT22;36325;51.512;-0.382;2023-10-09T00:59:25;16.20;99.90
30037;DHT22;36325;51.512;-0.382;2023-10-09T01:01:54;16.80;99.90
30037;DHT22;36325;51.512;-0.382;2023-10-09T01:04:32;16.10;99.90
30037;DHT22;36325;51.512;-0.382;2023-10-09T01:07:06;16.00;99.90
30037;DHT22;36325;51.512;-0.382;2023-10-09T01:09:50;15.90;99.90
30037;DHT22;36325;51.512;-0.382;2023-10-09T01:12:20;15.90;99.90
30037;DHT22;36325;51.512;-0.382;2023-10-09T01:14:48;15.90;99.90
30037;DHT22;36325;51.512;-0.382;2023-10-09T01:17:22;15.90;99.90
30037;DHT22;36325;51.512;-0.382;2023-10-09T01:20:04;15.90;99.90
30037;DHT22;36325;51.512;-0.382;2023-10-09T01:22:32;15.90;99.90
30037;DHT22;36325;51.512;-0.382;2023-10-09T01:25:00;15.90;99.90
30037;DHT22;36325;51.512;-0.382;2023-10-09T01:27:33;15.90;99.90
30037;DHT22;36325;51.512;-0.382;2023-10-09T01:30:01;15.80;99.90
30037;DHT22;36325;51.512;-0.382;2023-10-09T01:32:28;15.80;99.90
30037;DHT22;36325;51.512;-0.382;2023-10-09T01:34:57;15.80;99.90
30037;DHT22;36325;51.512;-0.382;2023-10-09T01:37:25;15.80;99.90
30037;DHT22;36325;51.512;-0.382;2023-10-09T01:39:59;15.80;99.90
30037;DHT22;36325;51.512;-0.382;2023-10-09T01:42:42;15.80;99.90
30037;DHT22;36325;51.512;-0.382;2023-10-09T01:45:13;15.80;99.90
30037;DHT22;36325;51.512;-0.382;2023-10-09T01:47:54;15.80;99.90
30037;DHT22;36325;51.512;-0.382;2023-10-09T01:50:22;15.80;99.90
30037;DHT22;36325;51.512;-0.382;2023-10-09T01:52:54;15.80;99.90
30037;DHT22;36325;51.512;-0.382;2023-10-09T01:55:25;15.70;99.90
30037;DHT22;36325;51.512;-0.382;2023-10-09T01:58:13;15.70;99.90
30037;DHT22;36325;51.512;-0.382;2023-10-09T02:00:50;15.70;99.90
30037;DHT22;36325;51.512;-0.382;2023-10-09T02:03:24;15.60;99.90
30037;DHT22;36325;51.512;-0.382;2023-10-09T02:05:54;15.60;99.90
30037;DHT22;36325;51.512;-0.382;2023-10-09T02:08:44;15.60;99.90
30037;DHT22;36325;51.512;-0.382;2023-10-09T02:11:16;15.60;99.90
30037;DHT22;36325;51.512;-0.382;2023-10-09T02:14:03;15.60;99.90
30037;DHT22;36325;51.512;-0.382;2023-10-09T02:16:42;15.50;99.90
30037;DHT22;36325;51.512;-0.382;2023-10-09T02:19:10;15.50;99.90
30037;DHT22;36325;51.512;-0.382;2023-10-09T02:21:56;15.50;99.90
30037;DHT22;36325;51.512;-0.382;2023-10-09T02:24:28;15.50;99.90
30037;DHT22;36325;51.512;-0.382;2023-10-09T02:27:21;15.50;99.90
30037;DHT22;36325;51.512;-0.382;2023-10-09T02:30:21;15.40;99.90
30037;DHT22;36325;51.512;-0.382;2023-10-09T02:32:54;15.40;99.90
30037;DHT22;36325;51.512;-0.382;2023-10-09T02:35:34;15.40;99.90
30037;DHT22;36325;51.512;-0.382;2023-10-09T02:38:05;15.30;99.90
30037;DHT22;36325;51.512;-0.382;2023-10-09T02:40:41;15.30;99.90
30037;DHT22;36325;51.512;-0.382;2023-10-09T02:43:30;15.20;99.90
30037;DHT22;36325;51.512;-0.382;2023-10-09T02:46:11;15.20;99.90
30037;DHT22;36325;51.512;-0.382;2023-10-09T02:48:46;15.20;99.90
30037;DHT22;36325;51.512;-0.382;2023-10-09T02:51:20;15.10;99.90
30037;DHT22;36325;51.512;-0.382;2023-10-09T02:53:54;15.10;99.90
30037;DHT22;36325;51.512;-0.382;2023-10-09T02:56:25;15.10;99.90
30037;DHT22;36325;51.512;-0.382;2023-10-09T02:59:05;15.10;99.90
30037;DHT22;36325;51.512;-0.382;2023-10-09T03:01:36;15.10;99.90
30037;DHT22;36325;51.512;-0.382;2023-10-09T03:04:04;15.10;99.90
30037;DHT22;36325;51.512;-0.382;2023-10-09T03:06:33;15.00;99.90
30037;DHT22;36325;51.512;-0.382;2023-10-09T03:09:07;15.00;99.90
30037;DHT22;36325;51.512;-0.382;2023-10-09T03:11:49;15.00;99.90
30037;DHT22;36325;51.512;-0.382;2023-10-09T03:14:22;14.90;99.90
30037;DHT22;36325;51.512;-0.382;2023-10-09T03:16:53;14.90;99.90
30037;DHT22;36325;51.512;-0.382;2023-10-09T03:19:20;14.90;99.90
30037;DHT22;36325;51.512;-0.382;2023-10-09T03:21:48;14.90;99.90
30037;DHT22;36325;51.512;-0.382;2023-10-09T03:24:16;14.90;99.90
30037;DHT22;36325;51.512;-0.382;2023-10-09T03:26:43;14.80;99.90
30037;DHT22;36325;51.512;-0.382;2023-10-09T03:29:13;14.90;99.90
30037;DHT22;36325;51.512;-0.382;2023-10-09T03:31:41;14.90;99.90
30037;DHT22;36325;51.512;-0.382;2023-10-09T03:34:10;14.80;99.90
30037;DHT22;36325;51.512;-0.382;2023-10-09T03:36:38;14.80;99.90
30037;DHT22;36325;51.512;-0.382;2023-10-09T03:39:06;14.90;99.90
30037;DHT22;36325;51.512;-0.382;2023-10-09T03:41:52;14.80;99.90
30037;DHT22;36325;51.512;-0.382;2023-10-09T03:44:21;14.80;99.90
30037;DHT22;36325;51.512;-0.382;2023-10-09T03:46:49;14.80;99.90
30037;DHT22;36325;51.512;-0.382;2023-10-09T03:49:18;14.80;99.90
30037;DHT22;36325;51.512;-0.382;2023-10-09T03:51:50;14.70;99.90
30037;DHT22;36325;51.512;-0.382;2023-10-09T03:54:19;14.70;99.90
30037;DHT22;36325;51.512;-0.382;2023-10-09T03:56:51;14.60;99.90
30037;DHT22;36325;51.512;-0.382;2023-10-09T03:59:21;14.60;99.90
30037;DHT22;36325;51.512;-0.382;2023-10-09T04:01:49;14.50;99.90
30037;DHT22;36325;51.512;-0.382;2023-10-09T04:04:20;14.50;99.90
30037;DHT22;36325;51.512;-0.382;2023-10-09T04:06:51;14.50;99.90
30037;DHT22;36325;51.512;-0.382;2023-10-09T04:09:21;14.50;99.90
30037;DHT22;36325;51.512;-0.382;2023-10-09T04:11:50;14.50;99.90
30037;DHT22;36325;51.512;-0.382;2023-10-09T04:14:40;14.50;99.90
30037;DHT22;36325;51.512;-0.382;2023-10-09T04:17:28;14.50;99.90
30037;DHT22;36325;51.512;-0.382;2023-10-09T04:20:04;14.50;99.90
30037;DHT22;36325;51.512;-0.382;2023-10-09T04:22:46;14.50;99.90
30037;DHT22;36325;51.512;-0.382;2023-10-09T04:25:27;14.50;99.90
30037;DHT22;36325;51.512;-0.382;2023-10-09T04:28:08;14.50;99.90
30037;DHT22;36325;51.512;-0.382;2023-10-09T04:30:41;14.50;99.90
30037;DHT22;36325;51.512;-0.382;2023-10-09T04:33:14;14.50;99.90
30037;DHT22;36325;51.512;-0.382;2023-10-09T04:36:06;14.40;99.90
30037;DHT22;36325;51.512;-0.382;2023-10-09T04:38:53;14.40;99.90
30037;DHT22;36325;51.512;-0.382;2023-10-09T04:41:35;14.40;99.90
30037;DHT22;36325;51.512;-0.382;2023-10-09T04:44:09;14.40;99.90
30037;DHT22;36325;51.512;-0.382;2023-10-09T04:46:57;14.40;99.90
30037;DHT22;36325;51.512;-0.382;2023-10-09T04:49:39;14.50;99.90
30037;DHT22;36325;51.512;-0.382;2023-10-09T04:52:16;14.60;99.90
30037;DHT22;36325;51.512;-0.382;2023-10-09T04:55:08;14.60;99.90
30037;DHT22;36325;51.512;-0.382;2023-10-09T04:57:40;14.60;99.90
30037;DHT22;36325;51.512;-0.382;2023-10-09T05:00:18;14.60;99.90
30037;DHT22;36325;51.512;-0.382;2023-10-09T05:02:53;14.70;99.90
30037;DHT22;36325;51.512;-0.382;2023-10-09T05:05:26;14.70;99.90
30037;DHT22;36325;51.512;-0.382;2023-10-09T05:08:13;14.60;99.90
30037;DHT22;36325;51.512;-0.382;2023-10-09T05:10:52;14.60;99.90
30037;DHT22;36325;51.512;-0.382;2023-10-09T05:13:27;14.60;99.90
30037;DHT22;36325;51.512;-0.382;2023-10-09T05:16:15;14.70;99.90
30037;DHT22;36325;51.512;-0.382;2023-10-09T05:18:47;14.70;99.90
30037;DHT22;36325;51.512;-0.382;2023-10-09T05:21:37;14.70;99.90
30037;DHT22;36325;51.512;-0.382;2023-10-09T05:24:10;14.70;99.90
30037;DHT22;36325;51.512;-0.382;2023-10-09T05:29:15;14.70;99.90
30037;DHT22;36325;51.512;-0.382;2023-10-09T05:32:03;14.60;99.90
30037;DHT22;36325;51.512;-0.382;2023-10-09T05:34:44;14.50;99.90
30037;DHT22;36325;51.512;-0.382;2023-10-09T05:37:32;14.50;99.90
30037;DHT22;36325;51.512;-0.382;2023-10-09T05:40:04;14.50;99.90
30037;DHT22;36325;51.512;-0.382;2023-10-09T05:42:51;14.40;99.90
30037;DHT22;36325;51.512;-0.382;2023-10-09T05:45:27;14.40;99.90
30037;DHT22;36325;51.512;-0.382;2023-10-09T05:48:17;14.40;99.90
30037;DHT22;36325;51.512;-0.382;2023-10-09T05:50:45;14.40;99.90
30037;DHT22;36325;51.512;-0.382;2023-10-09T05:53:30;14.40;99.90
30037;DHT22;36325;51.512;-0.382;2023-10-09T05:56:13;14.50;99.90
30037;DHT22;36325;51.512;-0.382;2023-10-09T05:58:59;14.50;99.90
30037;DHT22;36325;51.512;-0.382;2023-10-09T06:01:44;14.60;99.90
30037;DHT22;36325;51.512;-0.382;2023-10-09T06:04:18;14.60;99.90
30037;DHT22;36325;51.512;-0.382;2023-10-09T06:06:47;14.60;99.90
30037;DHT22;36325;51.512;-0.382;2023-10-09T06:09:24;14.60;99.90
30037;DHT22;36325;51.512;-0.382;2023-10-09T06:12:28;14.60;99.90
30037;DHT22;36325;51.512;-0.382;2023-10-09T06:15:19;14.60;99.90
30037;DHT22;36325;51.512;-0.382;2023-10-09T06:17:59;14.60;99.90
30037;DHT22;36325;51.512;-0.382;2023-10-09T06:20:46;14.50;99.90
30037;DHT22;36325;51.512;-0.382;2023-10-09T06:26:20;14.50;99.90
30037;DHT22;36325;51.512;-0.382;2023-10-09T06:28:53;14.60;99.90
30037;DHT22;36325;51.512;-0.382;2023-10-09T06:31:41;14.60;99.90
30037;DHT22;36325;51.512;-0.382;2023-10-09T06:34:44;14.50;99.90
30037;DHT22;36325;51.512;-0.382;2023-10-09T06:37:13;14.60;99.90
30037;DHT22;36325;51.512;-0.382;2023-10-09T06:39:55;14.60;99.90
30037;DHT22;36325;51.512;-0.382;2023-10-09T06:42:24;14.80;99.90
30037;DHT22;36325;51.512;-0.382;2023-10-09T06:45:07;14.80;99.90
30037;DHT22;36325;51.512;-0.382;2023-10-09T06:47:36;14.80;99.90
30037;DHT22;36325;51.512;-0.382;2023-10-09T06:50:11;14.90;99.90
30037;DHT22;36325;51.512;-0.382;2023-10-09T06:52:53;14.90;99.90
30037;DHT22;36325;51.512;-0.382;2023-10-09T06:55:24;15.00;99.90
30037;DHT22;36325;51.512;-0.382;2023-10-09T06:58:04;15.00;99.90
30037;DHT22;36325;51.512;-0.382;2023-10-09T07:00:40;15.20;99.90
30037;DHT22;36325;51.512;-0.382;2023-10-09T07:03:26;15.30;99.90
30037;DHT22;36325;51.512;-0.382;2023-10-09T07:06:20;15.50;99.90
30037;DHT22;36325;51.512;-0.382;2023-10-09T07:08:53;15.60;99.90
30037;DHT22;36325;51.512;-0.382;2023-10-09T07:11:40;15.70;99.90
30037;DHT22;36325;51.512;-0.382;2023-10-09T07:14:28;15.90;99.90
30037;DHT22;36325;51.512;-0.382;2023-10-09T07:17:09;16.00;99.90
30037;DHT22;36325;51.512;-0.382;2023-10-09T07:19:44;16.20;99.90
30037;DHT22;36325;51.512;-0.382;2023-10-09T07:22:14;16.20;99.90
30037;DHT22;36325;51.512;-0.382;2023-10-09T07:24:52;16.30;99.90
30037;DHT22;36325;51.512;-0.382;2023-10-09T07:27:27;16.30;99.90
30037;DHT22;36325;51.512;-0.382;2023-10-09T07:30:12;16.30;99.90
30037;DHT22;36325;51.512;-0.382;2023-10-09T07:33:00;15.90;99.90
30037;DHT22;36325;51.512;-0.382;2023-10-09T07:35:43;16.30;99.90
30037;DHT22;36325;51.512;-0.382;2023-10-09T07:38:19;16.20;99.90
30037;DHT22;36325;51.512;-0.382;2023-10-09T07:40:47;16.20;99.90
30037;DHT22;36325;51.512;-0.382;2023-10-09T07:43:38;16.20;99.90
30037;DHT22;36325;51.512;-0.382;2023-10-09T07:46:08;16.10;99.90
30037;DHT22;36325;51.512;-0.382;2023-10-09T07:49:04;16.20;99.90
30037;DHT22;36325;51.512;-0.382;2023-10-09T07:51:41;16.20;99.90
30037;DHT22;36325;51.512;-0.382;2023-10-09T07:54:15;16.20;99.90
30037;DHT22;36325;51.512;-0.382;2023-10-09T07:56:43;16.30;99.90
30037;DHT22;36325;51.512;-0.382;2023-10-09T07:59:15;16.30;99.90
30037;DHT22;36325;51.512;-0.382;2023-10-09T08:01:49;16.40;99.90
30037;DHT22;36325;51.512;-0.382;2023-10-09T08:04:22;16.40;99.90
30037;DHT22;36325;51.512;-0.382;2023-10-09T08:07:08;16.50;99.90
30037;DHT22;36325;51.512;-0.382;2023-10-09T08:09:56;16.60;99.90
30037;DHT22;36325;51.512;-0.382;2023-10-09T08:12:42;16.60;99.90
30037;DHT22;36325;51.512;-0.382;2023-10-09T08:15:13;16.60;99.90
30037;DHT22;36325;51.512;-0.382;2023-10-09T08:17:57;16.60;99.90
30037;DHT22;36325;51.512;-0.382;2023-10-09T08:20:45;16.70;99.90
30037;DHT22;36325;51.512;-0.382;2023-10-09T08:23:38;16.80;99.90
30037;DHT22;36325;51.512;-0.382;2023-10-09T08:26:18;17.00;99.90
30037;DHT22;36325;51.512;-0.382;2023-10-09T08:28:56;17.20;99.90
30037;DHT22;36325;51.512;-0.382;2023-10-09T08:31:44;17.50;99.90
30037;DHT22;36325;51.512;-0.382;2023-10-09T08:34:15;17.80;99.90
30037;DHT22;36325;51.512;-0.382;2023-10-09T08:36:55;17.70;99.90
30037;DHT22;36325;51.512;-0.382;2023-10-09T08:39:22;17.80;99.90
30037;DHT22;36325;51.512;-0.382;2023-10-09T08:41:54;17.90;99.90
30037;DHT22;36325;51.512;-0.382;2023-10-09T08:44:25;17.90;99.90
30037;DHT22;36325;51.512;-0.382;2023-10-09T08:46:55;18.00;99.90
30037;DHT22;36325;51.512;-0.382;2023-10-09T08:49:25;18.00;99.90
30037;DHT22;36325;51.512;-0.382;2023-10-09T08:51:53;18.00;99.90
30037;DHT22;36325;51.512;-0.382;2023-10-09T08:54:20;18.00;99.90
30037;DHT22;36325;51.512;-0.382;2023-10-09T08:56:48;17.90;99.90
30037;DHT22;36325;51.512;-0.382;2023-10-09T08:59:20;17.10;99.90
30037;DHT22;36325;51.512;-0.382;2023-10-09T09:01:50;17.80;99.90
30037;DHT22;36325;51.512;-0.382;2023-10-09T09:04:37;17.90;99.90
30037;DHT22;36325;51.512;-0.382;2023-10-09T09:07:34;18.20;99.90
30037;DHT22;36325;51.512;-0.382;2023-10-09T09:10:06;18.60;99.90
30037;DHT22;36325;51.512;-0.382;2023-10-09T09:12:49;19.10;99.90
30037;DHT22;36325;51.512;-0.382;2023-10-09T09:15:28;19.70;99.90
30037;DHT22;36325;51.512;-0.382;2023-10-09T09:18:08;20.10;99.90
30037;DHT22;36325;51.512;-0.382;2023-10-09T09:20:44;20.50;99.90
30037;DHT22;36325;51.512;-0.382;2023-10-09T09:23:15;21.20;99.90
30037;DHT22;36325;51.512;-0.382;2023-10-09T09:25:47;21.20;99.90
30037;DHT22;36325;51.512;-0.382;2023-10-09T09:28:26;21.40;99.90
30037;DHT22;36325;51.512;-0.382;2023-10-09T09:31:07;21.20;99.90
30037;DHT22;36325;51.512;-0.382;2023-10-09T09:33:40;21.20;99.90
30037;DHT22;36325;51.512;-0.382;2023-10-09T09:36:09;21.20;99.90
30037;DHT22;36325;51.512;-0.382;2023-10-09T09:38:40;21.20;99.90
30037;DHT22;36325;51.512;-0.382;2023-10-09T09:41:18;21.20;99.90
30037;DHT22;36325;51.512;-0.382;2023-10-09T09:43:56;21.50;99.90
30037;DHT22;36325;51.512;-0.382;2023-10-09T09:46:24;21.50;99.90
30037;DHT22;36325;51.512;-0.382;2023-10-09T09:49:02;21.50;99.90
30037;DHT22;36325;51.512;-0.382;2023-10-09T09:51:30;21.40;99.90
30037;DHT22;36325;51.512;-0.382;2023-10-09T09:53:58;21.70;99.90
30037;DHT22;36325;51.512;-0.382;2023-10-09T09:56:26;22.10;99.90
30037;DHT22;36325;51.512;-0.382;2023-10-09T09:58:57;22.30;99.90
30037;DHT22;36325;51.512;-0.382;2023-10-09T10:01:35;22.50;99.90
30037;DHT22;36325;51.512;-0.382;2023-10-09T10:04:14;22.80;99.90
30037;DHT22;36325;51.512;-0.382;2023-10-09T10:06:48;22.90;99.90
30037;DHT22;36325;51.512;-0.382;2023-10-09T10:09:42;22.70;99.90
30037;DHT22;36325;51.512;-0.382;2023-10-09T10:12:12;22.70;99.90
30037;DHT22;36325;51.512;-0.382;2023-10-09T10:14:57;23.00;99.90
30037;DHT22;36325;51.512;-0.382;2023-10-09T10:20:29;23.40;99.90
30037;DHT22;36325;51.512;-0.382;2023-10-09T10:23:19;23.70;99.90
30037;DHT22;36325;51.512;-0.382;2023-10-09T10:25:48;24.10;99.90
30037;DHT22;36325;51.512;-0.382;2023-10-09T10:40:24;25.20;99.90
30037;DHT22;36325;51.512;-0.382;2023-10-09T10:43:17;25.30;99.90
30037;DHT22;36325;51.512;-0.382;2023-10-09T10:46:05;25.40;99.90
30037;DHT22;36325;51.512;-0.382;2023-10-09T10:48:43;25.30;99.90
30037;DHT22;36325;51.512;-0.382;2023-10-09T10:51:14;25.20;99.90
30037;DHT22;36325;51.512;-0.382;2023-10-09T10:53:54;25.30;99.90
30037;DHT22;36325;51.512;-0.382;2023-10-09T10:56:24;25.60;99.90
30037;DHT22;36325;51.512;-0.382;2023-10-09T10:59:02;26.20;99.90
30037;DHT22;36325;51.512;-0.382;2023-10-09T11:01:36;26.50;99.90
30037;DHT22;36325;51.512;-0.382;2023-10-09T11:04:24;26.70;99.90
30037;DHT22;36325;51.512;-0.382;2023-10-09T11:06:52;26.50;99.90
30037;DHT22;36325;51.512;-0.382;2023-10-09T11:09:19;26.60;99.90
30037;DHT22;36325;51.512;-0.382;2023-10-09T11:11:52;26.60;99.90
30037;DHT22;36325;51.512;-0.382;2023-10-09T11:14:50;26.80;99.90
30037;DHT22;36325;51.512;-0.382;2023-10-09T11:17:33;27.10;99.90
30037;DHT22;36325;51.512;-0.382;2023-10-09T11:20:04;27.90;99.90
30037;DHT22;36325;51.512;-0.382;2023-10-09T11:22:52;28.50;99.90
30037;DHT22;36325;51.512;-0.382;2023-10-09T11:25:39;28.50;99.90
30037;DHT22;36325;51.512;-0.382;2023-10-09T11:28:27;28.20;99.90
30037;DHT22;36325;51.512;-0.382;2023-10-09T11:31:10;27.40;99.90
30037;DHT22;36325;51.512;-0.382;2023-10-09T11:33:50;27.30;99.90
30037;DHT22;36325;51.512;-0.382;2023-10-09T11:36:23;27.90;99.90
30037;DHT22;36325;51.512;-0.382;2023-10-09T11:39:02;28.70;99.90
30037;DHT22;36325;51.512;-0.382;2023-10-09T11:41:49;29.10;99.90
30037;DHT22;36325;51.512;-0.382;2023-10-09T11:44:35;29.50;99.90
30037;DHT22;36325;51.512;-0.382;2023-10-09T11:47:02;29.90;99.90
30037;DHT22;36325;51.512;-0.382;2023-10-09T11:52:23;29.90;99.90
30037;DHT22;36325;51.512;-0.382;2023-10-09T11:55:04;30.30;99.90
30037;DHT22;36325;51.512;-0.382;2023-10-09T11:57:42;30.30;99.90
30037;DHT22;36325;51.512;-0.382;2023-10-09T12:00:10;30.30;99.90
30037;DHT22;36325;51.512;-0.382;2023-10-09T12:02:57;30.50;99.90
30037;DHT22;36325;51.512;-0.382;2023-10-09T12:05:32;30.20;99.90
30037;DHT22;36325;51.512;-0.382;2023-10-09T12:08:03;29.80;99.90
30037;DHT22;36325;51.512;-0.382;2023-10-09T12:10:35;29.30;99.90
30037;DHT22;36325;51.512;-0.382;2023-10-09T12:13:06;28.40;99.90
30037;DHT22;36325;51.512;-0.382;2023-10-09T12:15:34;28.40;99.90
30037;DHT22;36325;51.512;-0.382;2023-10-09T12:18:07;28.20;99.90
30037;DHT22;36325;51.512;-0.382;2023-10-09T12:20:42;28.00;99.90
30037;DHT22;36325;51.512;-0.382;2023-10-09T12:23:14;28.60;99.90
30037;DHT22;36325;51.512;-0.382;2023-10-09T12:25:42;29.50;99.90
30037;DHT22;36325;51.512;-0.382;2023-10-09T12:28:12;29.90;99.90
30037;DHT22;36325;51.512;-0.382;2023-10-09T12:30:40;30.40;99.90
30037;DHT22;36325;51.512;-0.382;2023-10-09T12:33:14;31.00;99.90
30037;DHT22;36325;51.512;-0.382;2023-10-09T12:35:42;31.70;99.90
30037;DHT22;36325;51.512;-0.382;2023-10-09T12:38:14;32.30;99.90
30037;DHT22;36325;51.512;-0.382;2023-10-09T12:40:46;32.50;99.90
30037;DHT22;36325;51.512;-0.382;2023-10-09T12:43:18;32.90;99.90
30037;DHT22;36325;51.512;-0.382;2023-10-09T12:45:46;33.20;99.90
30037;DHT22;36325;51.512;-0.382;2023-10-09T12:48:14;33.20;99.90
30037;DHT22;36325;51.512;-0.382;2023-10-09T12:50:42;33.30;99.90
30037;DHT22;36325;51.512;-0.382;2023-10-09T12:53:11;33.20;99.90
30037;DHT22;36325;51.512;-0.382;2023-10-09T12:55:45;32.70;99.90
30037;DHT22;36325;51.512;-0.382;2023-10-09T12:58:13;32.50;99.90
30037;DHT22;36325;51.512;-0.382;2023-10-09T13:00:45;32.50;99.90
30037;DHT22;36325;51.512;-0.382;2023-10-09T13:03:18;32.50;99.90
30037;DHT22;36325;51.512;-0.382;2023-10-09T13:05:47;32.50;99.90
30037;DHT22;36325;51.512;-0.382;2023-10-09T13:08:25;32.50;99.90
30037;DHT22;36325;51.512;-0.382;2023-10-09T13:11:03;32.30;99.90
30037;DHT22;36325;51.512;-0.382;2023-10-09T13:13:45;32.50;99.90
30037;DHT22;36325;51.512;-0.382;2023-10-09T13:16:19;32.40;99.90
30037;DHT22;36325;51.512;-0.382;2023-10-09T13:18:53;32.20;99.90
30037;DHT22;36325;51.512;-0.382;2023-10-09T13:21:24;32.10;99.90
30037;DHT22;36325;51.512;-0.382;2023-10-09T13:23:52;32.10;99.90
30037;DHT22;36325;51.512;-0.382;2023-10-09T13:26:22;32.10;99.90
30037;DHT22;36325;51.512;-0.382;2023-10-09T13:29:01;32.20;99.90
30037;DHT22;36325;51.512;-0.382;2023-10-09T13:31:31;32.10;99.90
30037;DHT22;36325;51.512;-0.382;2023-10-09T13:34:03;32.20;99.90
30037;DHT22;36325;51.512;-0.382;2023-10-09T13:36:31;32.30;99.90
30037;DHT22;36325;51.512;-0.382;2023-10-09T13:39:03;32.30;99.90
30037;DHT22;36325;51.512;-0.382;2023-10-09T13:41:57;32.30;99.90
30037;DHT22;36325;51.512;-0.382;2023-10-09T13:44:30;32.20;99.90
30037;DHT22;36325;51.512;-0.382;2023-10-09T13:46:59;31.70;99.90
30037;DHT22;36325;51.512;-0.382;2023-10-09T13:49:27;31.20;99.90
30037;DHT22;36325;51.512;-0.382;2023-10-09T13:51:59;31.20;99.90
30037;DHT22;36325;51.512;-0.382;2023-10-09T13:54:29;31.30;99.90
30037;DHT22;36325;51.512;-0.382;2023-10-09T13:57:05;31.30;99.90
30037;DHT22;36325;51.512;-0.382;2023-10-09T13:59:34;31.60;99.90
30037;DHT22;36325;51.512;-0.382;2023-10-09T14:02:03;31.30;99.90
30037;DHT22;36325;51.512;-0.382;2023-10-09T14:04:40;31.80;99.90
30037;DHT22;36325;51.512;-0.382;2023-10-09T14:07:10;32.10;99.90
30037;DHT22;36325;51.512;-0.382;2023-10-09T14:09:37;32.50;99.90
30037;DHT22;36325;51.512;-0.382;2023-10-09T14:12:06;32.60;99.90
30037;DHT22;36325;51.512;-0.382;2023-10-09T14:14:42;32.90;99.90
30037;DHT22;36325;51.512;-0.382;2023-10-09T14:17:20;32.70;99.90
30037;DHT22;36325;51.512;-0.382;2023-10-09T14:19:54;32.80;99.90
30037;DHT22;36325;51.512;-0.382;2023-10-09T14:22:26;32.80;99.90
30037;DHT22;36325;51.512;-0.382;2023-10-09T14:27:27;32.30;99.90
30037;DHT22;36325;51.512;-0.382;2023-10-09T14:29:59;32.20;99.90
30037;DHT22;36325;51.512;-0.382;2023-10-09T14:32:28;32.10;99.90
30037;DHT22;36325;51.512;-0.382;2023-10-09T14:34:56;32.10;99.90
30037;DHT22;36325;51.512;-0.382;2023-10-09T14:37:30;32.50;99.90
30037;DHT22;36325;51.512;-0.382;2023-10-09T14:39:58;32.60;99.90
30037;DHT22;36325;51.512;-0.382;2023-10-09T14:42:26;32.80;99.90
30037;DHT22;36325;51.512;-0.382;2023-10-09T14:44:56;33.00;99.90
30037;DHT22;36325;51.512;-0.382;2023-10-09T14:47:25;32.80;99.90
30037;DHT22;36325;51.512;-0.382;2023-10-09T14:49:53;32.80;99.90
30037;DHT22;36325;51.512;-0.382;2023-10-09T14:52:23;32.60;99.90
30037;DHT22;36325;51.512;-0.382;2023-10-09T14:54:51;32.50;99.90
30037;DHT22;36325;51.512;-0.382;2023-10-09T14:57:19;32.30;99.90
30037;DHT22;36325;51.512;-0.382;2023-10-09T14:59:46;32.30;99.90
30037;DHT22;36325;51.512;-0.382;2023-10-09T15:02:16;32.30;99.90
30037;DHT22;36325;51.512;-0.382;2023-10-09T15:04:44;32.10;99.90
30037;DHT22;36325;51.512;-0.382;2023-10-09T15:07:11;31.90;99.90
30037;DHT22;36325;51.512;-0.382;2023-10-09T15:09:56;32.00;99.90
30037;DHT22;36325;51.512;-0.382;2023-10-09T15:12:31;32.10;99.90
30037;DHT22;36325;51.512;-0.382;2023-10-09T15:14:58;31.90;99.90
30037;DHT22;36325;51.512;-0.382;2023-10-09T15:17:26;31.70;99.90
30037;DHT22;36325;51.512;-0.382;2023-10-09T15:19:53;31.40;99.90
30037;DHT22;36325;51.512;-0.382;2023-10-09T15:22:23;31.00;99.90
30037;DHT22;36325;51.512;-0.382;2023-10-09T15:24:54;30.90;99.90
30037;DHT22;36325;51.512;-0.382;2023-10-09T15:27:21;31.00;99.90
30037;DHT22;36325;51.512;-0.382;2023-10-09T15:29:48;30.90;99.90
30037;DHT22;36325;51.512;-0.382;2023-10-09T15:32:16;30.80;99.90
30037;DHT22;36325;51.512;-0.382;2023-10-09T15:34:57;30.70;99.90
30037;DHT22;36325;51.512;-0.382;2023-10-09T15:37:25;30.50;99.90
30037;DHT22;36325;51.512;-0.382;2023-10-09T15:39:54;30.30;99.90
30037;DHT22;36325;51.512;-0.382;2023-10-09T15:42:21;30.20;99.90
30037;DHT22;36325;51.512;-0.382;2023-10-09T15:44:52;30.10;99.90
30037;DHT22;36325;51.512;-0.382;2023-10-09T15:47:21;29.90;99.90
30037;DHT22;36325;51.512;-0.382;2023-10-09T15:49:49;29.80;99.90
30037;DHT22;36325;51.512;-0.382;2023-10-09T15:52:19;29.80;99.90
30037;DHT22;36325;51.512;-0.382;2023-10-09T15:54:48;29.80;99.90
30037;DHT22;36325;51.512;-0.382;2023-10-09T15:57:16;29.80;99.90
30037;DHT22;36325;51.512;-0.382;2023-10-09T15:59:45;29.70;99.90
30037;DHT22;36325;51.512;-0.382;2023-10-09T16:02:12;29.60;99.90
30037;DHT22;36325;51.512;-0.382;2023-10-09T16:04:40;29.40;99.90
30037;DHT22;36325;51.512;-0.382;2023-10-09T16:07:08;28.90;99.90
30037;DHT22;36325;51.512;-0.382;2023-10-09T16:09:37;28.00;99.90
30037;DHT22;36325;51.512;-0.382;2023-10-09T16:12:07;29.00;99.90
30037;DHT22;36325;51.512;-0.382;2023-10-09T16:14:37;29.00;99.90
30037;DHT22;36325;51.512;-0.382;2023-10-09T16:17:04;29.00;99.90
30037;DHT22;36325;51.512;-0.382;2023-10-09T16:19:33;29.00;99.90
30037;DHT22;36325;51.512;-0.382;2023-10-09T16:22:04;28.80;99.90
30037;DHT22;36325;51.512;-0.382;2023-10-09T16:24:33;28.50;99.90
30037;DHT22;36325;51.512;-0.382;2023-10-09T16:27:10;28.30;99.90
30037;DHT22;36325;51.512;-0.382;2023-10-09T16:29:39;28.10;99.90
30037;DHT22;36325;51.512;-0.382;2023-10-09T16:32:08;27.90;99.90
30037;DHT22;36325;51.512;-0.382;2023-10-09T16:34:42;27.70;99.90